Time;durP1;ratioP1;P1;durP2;ratioP2;P2;SDS_P1;SDS_P2;PMS_P1;PMS_P2;Temp;Humidity;BMP_temperature;BMP_pressure;BME280_temperature;BME280_humidity;BME280_pressure;Samples;Min_cycle;Max_cycle;Signal;HPM_P1;HPM_P2
2023/06/10 00:02:07;;;;;;;;;;;;;;;20.49;50.78;99022.72;5091809;28;19960;-79
2023/06/10 00:04:33;;;;;;;;;;;;;;;20.53;51.10;99017.66;5091816;28;19912;-79
2023/06/10 00:06:58;;;;;;;;;;;;;;;20.60;50.11;99028.97;5091929;28;20353;-78
2023/06/10 00:09:23;;;;;;;;;;;;;;;20.59;49.52;99022.00;5091892;28;20375;-79
2023/06/10 00:11:49;;;;;;;;;;;;;;;20.55;51.39;99020.91;5091825;28;19927;-79
2023/06/10 00:14:14;;;;;;;;;;;;;;;20.54;51.77;99013.91;5091695;28;19913;-79
2023/06/10 00:16:40;;;;;;;;;;;;;;;20.49;51.17;99009.31;5090198;28;19917;-78
2023/06/10 00:19:06;;;;;;;;;;;;;;;20.51;49.95;99009.88;5091636;28;19952;-79
2023/06/10 00:21:37;;;;;;;;;;;;;;;20.54;50.13;99009.34;5090403;28;20377;-79
2023/06/10 00:24:03;;;;;;;;;;;;;;;20.58;50.71;99004.28;5107320;28;19926;-79
2023/06/10 00:26:28;;;;;;;;;;;;;;;20.58;50.65;99013.16;5091799;28;19912;-79
2023/06/10 00:28:53;;;;;;;;;;;;;;;20.55;50.79;99015.53;5091499;28;19927;-79
2023/06/10 00:31:19;;;;;;;;;;;;;;;20.47;51.16;99011.44;5091729;28;19912;-78
2023/06/10 00:33:44;;;;;;;;;;;;;;;20.46;50.40;99006.34;5090384;28;20419;-79
2023/06/10 00:36:09;;;;;;;;;;;;;;;20.41;50.80;99014.34;5091463;28;19928;-80
2023/06/10 00:38:35;;;;;;;;;;;;;;;20.37;50.98;99016.69;5091547;28;19966;-79
2023/06/10 00:41:00;;;;;;;;;;;;;;;20.37;50.88;99013.19;5091600;28;19912;-78
2023/06/10 00:43:25;;;;;;;;;;;;;;;20.34;50.34;99008.34;5091492;28;19916;-79
2023/06/10 00:45:51;;;;;;;;;;;;;;;20.28;50.38;99005.63;5091639;28;20399;-79
2023/06/10 00:48:17;;;;;;;;;;;;;;;20.27;50.45;99004.00;5091538;28;19912;-78
2023/06/10 00:50:42;;;;;;;;;;;;;;;20.28;51.17;99008.28;5091526;28;20389;-78
2023/06/10 00:53:08;;;;;;;;;;;;;;;20.28;50.13;99007.50;5091532;28;19919;-78
2023/06/10 00:55:33;;;;;;;;;;;;;;;20.24;50.73;99001.00;5091472;28;20469;-79
2023/06/10 00:57:59;;;;;;;;;;;;;;;20.23;50.38;99010.94;5091495;28;19917;-79
2023/06/10 01:00:25;;;;;;;;;;;;;;;20.18;49.74;99002.84;5091415;28;19942;-78
2023/06/10 01:02:52;;;;;;;;;;;;;;;20.11;50.77;99006.78;5090186;28;19916;-79
2023/06/10 01:05:18;;;;;;;;;;;;;;;20.12;49.88;99011.91;5090009;28;20003;-78
2023/06/10 01:07:44;;;;;;;;;;;;;;;20.09;50.65;99007.03;5091591;28;19961;-78
2023/06/10 01:10:10;;;;;;;;;;;;;;;20.14;50.76;99009.78;5094564;28;19995;-79
2023/06/10 01:12:41;;;;;;;;;;;;;;;20.10;50.45;99010.53;5093911;28;20444;-79
2023/06/10 01:15:07;;;;;;;;;;;;;;;20.04;51.38;99004.28;5095481;28;19919;-78
2023/06/10 01:17:33;;;;;;;;;;;;;;;20.03;51.57;99008.03;5094860;28;19916;-79
2023/06/10 01:19:59;;;;;;;;;;;;;;;19.97;51.37;99006.34;5110546;28;19943;-78
2023/06/10 01:22:26;;;;;;;;;;;;;;;19.93;51.28;99008.72;5093433;28;19919;-79
2023/06/10 01:24:52;;;;;;;;;;;;;;;19.99;50.71;99009.59;5094620;28;19912;-78
2023/06/10 01:27:19;;;;;;;;;;;;;;;20.03;51.00;99005.34;5094388;28;19916;-79
2023/06/10 01:29:45;;;;;;;;;;;;;;;20.00;50.13;99008.53;5094729;28;19966;-79
2023/06/10 01:32:15;;;;;;;;;;;;;;;19.97;50.44;99011.72;5094783;28;19919;-79
2023/06/10 01:34:42;;;;;;;;;;;;;;;20.01;50.57;99010.16;5094517;28;19974;-79
2023/06/10 01:37:08;;;;;;;;;;;;;;;19.96;50.71;99004.72;5094484;28;19923;-79
2023/06/10 01:39:34;;;;;;;;;;;;;;;19.87;51.00;99007.06;5094856;28;20409;-79
2023/06/10 01:42:00;;;;;;;;;;;;;;;19.85;50.89;99003.81;5094521;28;19912;-79
2023/06/10 01:44:26;;;;;;;;;;;;;;;19.86;50.57;98999.25;5094406;28;20381;-79
2023/06/10 01:46:51;;;;;;;;;;;;;;;19.78;49.97;98997.84;5092976;28;19913;-78
2023/06/10 01:49:16;;;;;;;;;;;;;;;19.71;50.48;98997.22;5094210;28;20300;-79
2023/06/10 01:51:41;;;;;;;;;;;;;;;19.61;51.09;98999.78;5094107;28;19912;-79
2023/06/10 01:54:07;;;;;;;;;;;;;;;19.54;50.55;99001.84;5092793;28;20007;-79
2023/06/10 01:56:32;;;;;;;;;;;;;;;19.48;51.46;99010.84;5094225;28;19916;-79
2023/06/10 01:58:59;;;;;;;;;;;;;;;19.50;51.60;99008.72;5094080;28;19920;-79
2023/06/10 02:01:27;;;;;;;;;;;;;;;19.50;50.58;99006.03;5093903;28;19912;-79
2023/06/10 02:03:52;;;;;;;;;;;;;;;19.49;51.65;99012.47;5093900;28;19935;-79
2023/06/10 02:06:17;;;;;;;;;;;;;;;19.45;50.85;99014.03;5094034;28;20333;-79
2023/06/10 02:08:43;;;;;;;;;;;;;;;19.40;51.11;99017.44;5093868;28;19926;-79
2023/06/10 02:11:08;;;;;;;;;;;;;;;19.32;51.25;99015.16;5109437;28;19919;-79
2023/06/10 02:13:33;;;;;;;;;;;;;;;19.27;51.89;99012.41;5092480;28;20286;-78
2023/06/10 02:15:59;;;;;;;;;;;;;;;19.23;50.86;99013.97;5093892;28;19912;-79
2023/06/10 02:18:26;;;;;;;;;;;;;;;19.16;50.95;99021.38;5092370;28;19912;-79
2023/06/10 02:20:52;;;;;;;;;;;;;;;19.09;52.17;99026.88;5092649;28;20389;-79
2023/06/10 02:23:17;;;;;;;;;;;;;;;19.04;51.64;99022.28;5093317;28;19919;-79
2023/06/10 02:25:42;;;;;;;;;;;;;;;19.07;52.60;99023.66;5093888;28;19920;-78
2023/06/10 02:28:07;;;;;;;;;;;;;;;19.05;52.42;99031.91;5093488;28;20373;-79
2023/06/10 02:30:33;;;;;;;;;;;;;;;19.05;51.59;99025.75;5093535;28;19913;-79
2023/06/10 02:32:59;;;;;;;;;;;;;;;19.03;52.03;99019.84;5093565;28;19913;-79
2023/06/10 02:35:24;;;;;;;;;;;;;;;18.99;51.70;99024.88;5093384;28;19998;-79
2023/06/10 02:37:50;;;;;;;;;;;;;;;18.94;52.80;99027.47;5093339;28;19920;-79
2023/06/10 02:40:15;;;;;;;;;;;;;;;18.95;52.44;99022.94;5093521;28;19912;-79
2023/06/10 02:42:41;;;;;;;;;;;;;;;19.02;51.74;99032.41;5093344;28;20421;-78
2023/06/10 02:45:06;;;;;;;;;;;;;;;19.05;52.47;99025.75;5093193;28;19966;-79
2023/06/10 02:47:31;;;;;;;;;;;;;;;19.07;51.90;99033.53;5091759;28;20407;-78
2023/06/10 02:49:57;;;;;;;;;;;;;;;19.09;51.81;99034.09;5093313;28;20380;-78
2023/06/10 02:52:22;;;;;;;;;;;;;;;19.14;52.00;99047.56;5092006;28;19916;-79
2023/06/10 02:54:47;;;;;;;;;;;;;;;19.24;51.65;99042.34;5091833;28;19927;-79
2023/06/10 02:57:14;;;;;;;;;;;;;;;19.31;51.22;99038.44;5092975;28;20022;-78
2023/06/10 02:59:40;;;;;;;;;;;;;;;19.35;51.16;99046.81;5091596;28;20350;-79
2023/06/10 03:02:05;;;;;;;;;;;;;;;19.33;51.62;99039.03;5093005;28;19912;-78
2023/06/10 03:04:30;;;;;;;;;;;;;;;19.32;51.63;99041.94;5092905;28;19916;-78
2023/06/10 03:06:56;;;;;;;;;;;;;;;19.27;51.93;99039.19;5092791;28;19916;-79
2023/06/10 03:09:21;;;;;;;;;;;;;;;19.25;52.01;99041.28;5092750;28;19915;-79
2023/06/10 03:11:46;;;;;;;;;;;;;;;19.19;52.31;99037.75;5092604;28;19912;-79
2023/06/10 03:14:12;;;;;;;;;;;;;;;19.13;52.92;99037.91;5092819;28;19965;-79
2023/06/10 03:16:40;;;;;;;;;;;;;;;19.15;51.97;99041.97;5092688;28;19916;-78
2023/06/10 03:19:06;;;;;;;;;;;;;;;19.18;51.33;99041.47;5092414;28;19916;-78
2023/06/10 03:21:31;;;;;;;;;;;;;;;19.17;51.90;99045.19;5092486;28;19969;-79
2023/06/10 03:23:56;;;;;;;;;;;;;;;19.18;52.61;99035.31;5092433;28;20312;-79
2023/06/10 03:26:21;;;;;;;;;;;;;;;19.23;52.21;99040.72;5092480;28;20393;-79
2023/06/10 03:28:47;;;;;;;;;;;;;;;19.28;51.88;99040.81;5092321;28;20026;-79
2023/06/10 03:31:12;;;;;;;;;;;;;;;19.26;52.77;99032.22;5092109;28;19912;-79
2023/06/10 03:33:38;;;;;;;;;;;;;;;19.29;51.87;99035.19;5107919;28;19977;-78
2023/06/10 03:36:04;;;;;;;;;;;;;;;19.30;52.47;99044.03;5090986;28;19912;-79
2023/06/10 03:38:29;;;;;;;;;;;;;;;19.30;52.66;99036.81;5091126;28;19939;-78
2023/06/10 03:40:54;;;;;;;;;;;;;;;19.31;52.91;99043.78;5092338;28;19967;-79
2023/06/10 03:43:20;;;;;;;;;;;;;;;19.33;52.87;99038.22;5092240;28;19915;-80
2023/06/10 03:45:45;;;;;;;;;;;;;;;19.33;51.80;99043.59;5092605;28;19905;-79
2023/06/10 03:48:11;;;;;;;;;;;;;;;19.34;52.62;99031.81;5092141;28;19919;-78
2023/06/10 03:50:37;;;;;;;;;;;;;;;19.35;52.69;99038.78;5092140;28;19912;-79
2023/06/10 03:53:02;;;;;;;;;;;;;;;19.39;53.14;99039.09;5091931;28;19965;-78
2023/06/10 03:55:27;;;;;;;;;;;;;;;19.39;51.93;99042.59;5091991;28;19995;-79
2023/06/10 03:57:52;;;;;;;;;;;;;;;19.40;53.03;99044.22;5092002;28;19920;-78
2023/06/10 04:00:21;;;;;;;;;;;;;;;19.43;53.32;99048.25;5091848;28;19923;-79
2023/06/10 04:02:48;;;;;;;;;;;;;;;19.50;52.94;99043.53;5091894;28;19912;-79
2023/06/10 04:05:14;;;;;;;;;;;;;;;19.53;53.19;99041.19;5091872;28;19912;-79
2023/06/10 04:07:40;;;;;;;;;;;;;;;19.58;51.75;99038.59;5091922;28;19912;-79
2023/06/10 04:10:06;;;;;;;;;;;;;;;19.61;53.73;99039.97;5091815;28;19991;-78
2023/06/10 04:12:32;;;;;;;;;;;;;;;19.56;53.93;99038.03;5091858;28;20312;-79
2023/06/10 04:14:57;;;;;;;;;;;;;;;19.59;53.78;99042.06;5091901;28;19960;-79
2023/06/10 04:17:22;;;;;;;;;;;;;;;19.64;55.23;99036.78;5091676;28;19916;-79
2023/06/10 04:19:48;;;;;;;;;;;;;;;19.69;53.65;99042.19;5091732;28;19912;-79
2023/06/10 04:22:13;;;;;;;;;;;;;;;19.75;54.87;99029.69;5091883;28;20412;-78
2023/06/10 04:24:38;;;;;;;;;;;;;;;19.75;53.46;99027.81;5090265;28;19916;-79
2023/06/10 04:27:04;;;;;;;;;;;;;;;19.83;54.40;99031.91;5091645;28;19995;-78
2023/06/10 04:29:29;;;;;;;;;;;;;;;19.87;53.71;99035.72;5091498;28;19921;-80
2023/06/10 04:31:54;;;;;;;;;;;;;;;19.91;54.30;99028.78;5090406;28;19912;-79
2023/06/10 04:34:20;;;;;;;;;;;;;;;19.99;53.71;99022.97;5091723;28;20380;-79
2023/06/10 04:36:45;;;;;;;;;;;;;;;20.03;55.00;99018.75;5091538;28;19920;-79
2023/06/10 04:39:10;;;;;;;;;;;;;;;20.05;53.16;99021.97;5091690;28;19935;-79
2023/06/10 04:41:35;;;;;;;;;;;;;;;20.06;54.27;99020.09;5107242;28;19915;-78
2023/06/10 04:44:01;;;;;;;;;;;;;;;20.10;55.45;99026.59;5091918;28;19913;-79
2023/06/10 04:46:26;;;;;;;;;;;;;;;20.14;53.80;99022.38;5095428;28;20003;-79
2023/06/10 04:48:51;;;;;;;;;;;;;;;20.14;55.18;99028.53;5095430;28;19912;-79
2023/06/10 04:51:16;;;;;;;;;;;;;;;20.24;54.92;99017.09;5095694;28;19912;-79
2023/06/10 04:53:42;;;;;;;;;;;;;;;20.28;54.98;99019.03;5095351;28;19919;-79
2023/06/10 04:56:07;;;;;;;;;;;;;;;20.34;56.01;99021.75;5111017;28;19912;-78
2023/06/10 04:58:33;;;;;;;;;;;;;;;20.37;57.90;99026.59;5095393;28;19923;-78
2023/06/10 05:00:59;;;;;;;;;;;;;;;20.46;54.68;99025.91;5093729;28;19919;-79
2023/06/10 05:03:25;;;;;;;;;;;;;;;20.53;56.29;99029.19;5093698;28;20014;-78
2023/06/10 05:05:50;;;;;;;;;;;;;;;20.53;55.71;99031.06;5095130;28;19951;-78
2023/06/10 05:08:15;;;;;;;;;;;;;;;20.57;55.51;99032.97;5095046;28;19912;-79
2023/06/10 05:10:40;;;;;;;;;;;;;;;20.60;55.58;99023.63;5095157;28;19912;-79
2023/06/10 05:13:06;;;;;;;;;;;;;;;20.70;55.21;99029.06;5110971;28;19916;-79
2023/06/10 05:15:31;;;;;;;;;;;;;;;20.77;55.79;99032.34;5094888;28;19916;-79
2023/06/10 05:17:58;;;;;;;;;;;;;;;20.84;55.54;99024.91;5094851;28;20308;-78
2023/06/10 05:20:24;;;;;;;;;;;;;;;20.92;56.43;99024.44;5094892;28;19912;-79
2023/06/10 05:22:49;;;;;;;;;;;;;;;21.00;55.14;99025.00;5094936;28;19916;-78
2023/06/10 05:25:14;;;;;;;;;;;;;;;20.97;56.28;99018.28;5110548;28;20393;-78
2023/06/10 05:27:42;;;;;;;;;;;;;;;21.07;55.92;99020.22;5094737;28;19943;-79
2023/06/10 05:30:08;;;;;;;;;;;;;;;21.21;55.92;99019.50;5094640;28;19912;-79
2023/06/10 05:32:33;;;;;;;;;;;;;;;21.30;55.29;99017.16;5094549;28;19919;-79
2023/06/10 05:35:00;;;;;;;;;;;;;;;21.43;55.44;99022.06;5094603;28;19904;-78
2023/06/10 05:37:25;;;;;;;;;;;;;;;21.51;55.98;99020.75;5094377;28;20399;-79
2023/06/10 05:39:51;;;;;;;;;;;;;;;21.53;54.93;99018.63;5094489;28;19912;-79
2023/06/10 05:42:16;;;;;;;;;;;;;;;21.53;56.52;99016.75;5094491;28;19969;-78
2023/06/10 05:44:41;;;;;;;;;;;;;;;21.58;55.72;99015.19;5094373;28;20008;-79
2023/06/10 05:47:06;;;;;;;;;;;;;;;21.67;54.01;99011.72;5094271;28;19919;-78
2023/06/10 05:49:32;;;;;;;;;;;;;;;21.81;54.81;99017.41;5094104;28;19982;-78
2023/06/10 05:54:41;;;;;;;;;;;;;;;22.16;52.61;99022.91;5093255;28;19918;-78
2023/06/10 05:57:06;;;;;;;;;;;;;;;22.33;52.33;99024.56;5093766;28;19920;-79
2023/06/10 05:59:31;;;;;;;;;;;;;;;22.46;52.04;99019.47;5094067;28;19912;-79
2023/06/10 06:01:58;;;;;;;;;;;;;;;22.56;51.07;99023.25;5094214;28;19912;-79
2023/06/10 06:04:23;;;;;;;;;;;;;;;22.64;51.44;99026.19;5111923;27;19916;-78
2023/06/10 06:06:48;;;;;;;;;;;;;;;22.69;50.70;99025.41;5114296;28;19919;-76
2023/06/10 06:09:13;;;;;;;;;;;;;;;22.78;50.21;99031.84;5111367;27;19916;-78
2023/06/10 06:11:38;;;;;;;;;;;;;;;22.91;50.30;99027.84;5100271;27;19938;-79
2023/06/10 06:14:04;;;;;;;;;;;;;;;22.99;49.91;99028.09;5115330;27;19945;-78
2023/06/10 06:16:29;;;;;;;;;;;;;;;23.08;49.93;99029.19;5112583;28;20352;-78
2023/06/10 06:18:55;;;;;;;;;;;;;;;23.19;49.29;99027.28;5102299;28;19968;-78
2023/06/10 06:21:20;;;;;;;;;;;;;;;23.28;49.43;99025.63;5098653;28;19923;-78
2023/06/10 06:23:45;;;;;;;;;;;;;;;23.35;49.41;99030.72;5101275;28;20056;-78
2023/06/10 06:26:10;;;;;;;;;;;;;;;23.37;49.35;99024.00;5104131;28;19916;-77
2023/06/10 06:28:36;;;;;;;;;;;;;;;23.38;49.52;99017.53;5094525;28;20003;-78
2023/06/10 06:31:01;;;;;;;;;;;;;;;23.40;49.60;99009.16;5113941;28;19922;-78
2023/06/10 06:33:26;;;;;;;;;;;;;;;23.44;49.42;99012.91;5114821;27;19934;-78
2023/06/10 06:35:52;;;;;;;;;;;;;;;23.40;50.05;99014.56;5094223;28;19916;-78
2023/06/10 06:38:17;;;;;;;;;;;;;;;23.44;49.69;99008.34;5094234;27;19985;-78
2023/06/10 06:40:42;;;;;;;;;;;;;;;23.46;49.86;99000.78;5098834;28;20275;-78
2023/06/10 06:43:07;;;;;;;;;;;;;;;23.49;50.03;99001.31;5113283;28;19912;-78
2023/06/10 06:45:33;;;;;;;;;;;;;;;23.49;49.88;98996.72;5110864;28;20320;-78
2023/06/10 06:47:59;;;;;;;;;;;;;;;23.54;49.91;98995.91;5111430;28;19919;-78
2023/06/10 06:50:24;;;;;;;;;;;;;;;23.59;49.52;98998.63;5113130;28;20375;-78
2023/06/10 06:52:49;;;;;;;;;;;;;;;23.62;49.85;98995.38;5111206;28;19926;-78
2023/06/10 06:55:15;;;;;;;;;;;;;;;23.69;48.98;98995.88;5100688;28;19915;-78
2023/06/10 06:57:40;;;;;;;;;;;;;;;23.72;49.23;98998.00;5099552;28;19920;-78
2023/06/10 07:00:05;;;;;;;;;;;;;;;23.73;49.23;98997.72;5105212;28;19920;-78
2023/06/10 07:02:32;;;;;;;;;;;;;;;23.73;49.68;98989.66;5102542;28;20367;-78
2023/06/10 07:04:58;;;;;;;;;;;;;;;23.79;49.29;98989.66;5104507;28;19915;-78
2023/06/10 07:07:24;;;;;;;;;;;;;;;23.85;49.10;98986.66;5108872;28;19919;-78
2023/06/10 07:09:49;;;;;;;;;;;;;;;23.92;48.93;98992.53;5101229;28;20003;-79
2023/06/10 07:12:14;;;;;;;;;;;;;;;23.97;49.01;98984.41;5099266;28;19912;-76
2023/06/10 07:14:40;;;;;;;;;;;;;;;24.00;49.63;98985.75;5103605;28;19927;-78
2023/06/10 07:19:51;;;;;;;;;;;;;;;24.05;48.63;98983.81;5103898;28;19969;-79
2023/06/10 07:22:16;;;;;;;;;;;;;;;24.13;49.02;98987.81;5112513;28;19916;-78
2023/06/10 07:24:42;;;;;;;;;;;;;;;24.21;48.82;98989.13;5103593;28;20402;-78
2023/06/10 07:27:07;;;;;;;;;;;;;;;24.26;48.42;98978.28;5100746;28;20429;-78
2023/06/10 07:29:32;;;;;;;;;;;;;;;24.24;48.46;98980.47;5101590;28;20293;-77
2023/06/10 07:31:58;;;;;;;;;;;;;;;24.27;48.42;98985.31;5112081;28;20007;-76
2023/06/10 07:34:23;;;;;;;;;;;;;;;24.31;48.77;98980.97;5105116;28;19916;-77
2023/06/10 07:36:48;;;;;;;;;;;;;;;24.39;48.46;98980.38;5110319;28;19915;-78
2023/06/10 07:39:13;;;;;;;;;;;;;;;24.52;48.37;98977.03;5101740;27;20316;-78
2023/06/10 07:41:39;;;;;;;;;;;;;;;24.58;47.46;98978.63;5112196;28;19912;-78
2023/06/10 07:44:04;;;;;;;;;;;;;;;24.61;46.81;98978.06;5110298;28;19922;-79
2023/06/10 07:46:29;;;;;;;;;;;;;;;24.63;46.91;98978.59;5103950;28;19919;-78
2023/06/10 07:48:54;;;;;;;;;;;;;;;24.65;46.81;98975.59;5099781;28;19916;-78
2023/06/10 07:51:20;;;;;;;;;;;;;;;24.70;46.97;98976.34;5111780;28;19916;-78
2023/06/10 07:53:45;;;;;;;;;;;;;;;24.71;47.33;98977.97;5108418;28;20448;-78
2023/06/10 07:56:11;;;;;;;;;;;;;;;24.76;47.72;98970.91;5106661;28;19911;-78
2023/06/10 07:58:36;;;;;;;;;;;;;;;24.83;47.81;98974.88;5111877;28;19981;-78
2023/06/10 08:01:01;;;;;;;;;;;;;;;24.94;47.03;98981.00;5108676;28;19915;-78
2023/06/10 08:03:26;;;;;;;;;;;;;;;25.00;46.99;98979.88;5110907;28;19965;-78
2023/06/10 08:05:52;;;;;;;;;;;;;;;25.05;46.57;98979.81;5095752;28;20371;-78
2023/06/10 08:08:17;;;;;;;;;;;;;;;25.19;46.23;98982.63;5093972;28;19926;-79
2023/06/10 08:10:42;;;;;;;;;;;;;;;25.27;45.86;98973.94;5103658;28;19939;-77
2023/06/10 08:13:08;;;;;;;;;;;;;;;25.41;45.72;98965.94;5109176;28;19915;-78
2023/06/10 08:15:33;;;;;;;;;;;;;;;25.59;45.15;98974.06;5096837;28;19927;-78
2023/06/10 08:17:59;;;;;;;;;;;;;;;25.72;44.92;98969.06;5099139;28;19989;-78
2023/06/10 08:20:24;;;;;;;;;;;;;;;25.90;44.49;98968.28;5102308;27;20316;-78
2023/06/10 08:22:50;;;;;;;;;;;;;;;26.04;43.93;98971.09;5110819;28;20323;-79
2023/06/10 08:25:15;;;;;;;;;;;;;;;26.20;43.37;98972.47;5104480;28;19931;-78
2023/06/10 08:27:40;;;;;;;;;;;;;;;26.34;42.22;98972.53;5107996;28;19927;-78
2023/06/10 08:30:06;;;;;;;;;;;;;;;26.46;41.52;98970.97;5098124;28;19916;-78
2023/06/10 08:32:31;;;;;;;;;;;;;;;26.54;41.24;98974.91;5103800;28;20443;-78
2023/06/10 08:34:56;;;;;;;;;;;;;;;26.59;39.20;98972.91;5106973;28;19930;-79
2023/06/10 08:37:22;;;;;;;;;;;;;;;26.57;41.03;98964.28;5111650;28;19919;-78
2023/06/10 08:39:47;;;;;;;;;;;;;;;26.70;41.46;98972.75;5115534;28;19919;-78
2023/06/10 08:42:21;;;;;;;;;;;;;;;26.80;39.92;98967.97;5115460;28;19958;-78
2023/06/10 08:44:49;;;;;;;;;;;;;;;26.87;40.50;98964.88;5108582;28;19912;-78
2023/06/10 08:47:16;;;;;;;;;;;;;;;26.88;41.46;98967.28;5109193;28;19922;-78
2023/06/10 08:49:42;;;;;;;;;;;;;;;26.83;40.74;98961.97;5115285;28;20293;-78
2023/06/10 08:52:09;;;;;;;;;;;;;;;26.88;41.46;98958.34;5102653;28;19912;-78
2023/06/10 08:54:38;;;;;;;;;;;;;;;26.97;41.77;98950.34;5103289;28;19923;-78
2023/06/10 08:57:06;;;;;;;;;;;;;;;27.02;40.93;98951.06;5098178;28;19916;-78
2023/06/10 08:59:31;;;;;;;;;;;;;;;27.12;41.14;98944.66;5113182;28;19926;-79
2023/06/10 09:01:57;;;;;;;;;;;;;;;27.28;41.00;98945.16;5110123;28;20002;-78
2023/06/10 09:04:23;;;;;;;;;;;;;;;27.35;40.28;98942.84;5114278;28;19985;-78
2023/06/10 09:06:49;;;;;;;;;;;;;;;27.42;40.62;98940.53;5113523;28;20372;-78
2023/06/10 09:09:15;;;;;;;;;;;;;;;27.53;40.39;98936.50;5115006;28;20300;-78
2023/06/10 09:11:43;;;;;;;;;;;;;;;27.65;40.09;98936.81;5098191;28;19920;-78
2023/06/10 09:14:08;;;;;;;;;;;;;;;27.66;39.76;98935.72;5111091;28;20311;-78
2023/06/10 09:16:34;;;;;;;;;;;;;;;27.63;40.21;98932.81;5102461;28;19920;-78
2023/06/10 09:18:59;;;;;;;;;;;;;;;27.57;39.90;98934.78;5108935;28;19918;-78
2023/06/10 09:21:25;;;;;;;;;;;;;;;27.50;40.23;98931.69;5113023;28;20045;-78
2023/06/10 09:23:51;;;;;;;;;;;;;;;27.41;39.94;98925.34;5110595;28;19916;-78
2023/06/10 09:26:16;;;;;;;;;;;;;;;27.52;40.42;98926.78;5102472;28;19915;-77
2023/06/10 09:28:49;;;;;;;;;;;;;;;27.80;39.11;98933.75;5100990;28;20473;-78
2023/06/10 09:31:18;;;;;;;;;;;;;;;27.84;39.35;98925.81;5103680;27;19916;-78
2023/06/10 09:33:43;;;;;;;;;;;;;;;27.74;38.45;98924.13;5114470;28;19999;-78
2023/06/10 09:36:10;;;;;;;;;;;;;;;27.59;39.09;98921.72;5111711;28;20377;-78
2023/06/10 09:38:35;;;;;;;;;;;;;;;27.52;38.40;98926.78;5113075;28;19922;-79
2023/06/10 09:41:02;;;;;;;;;;;;;;;27.52;39.04;98921.34;5104164;28;20018;-78
2023/06/10 09:43:41;;;;;;;;;;;;;;;27.68;38.11;98927.28;5096202;28;20474;-78
2023/06/10 09:46:06;;;;;;;;;;;;;;;27.97;35.28;98924.16;5101174;28;19969;-79
2023/06/10 09:48:34;;;;;;;;;;;;;;;28.19;36.02;98924.16;5106993;27;19919;-79
2023/06/10 09:50:59;;;;;;;;;;;;;;;28.42;35.35;98919.59;5097183;28;20441;-78
2023/06/10 09:53:25;;;;;;;;;;;;;;;28.40;34.26;98921.81;5098809;28;19990;-78
2023/06/10 09:55:52;;;;;;;;;;;;;;;28.55;35.89;98926.84;5098986;28;20444;-78
2023/06/10 09:58:17;;;;;;;;;;;;;;;28.92;35.26;98917.47;5111458;27;19920;-78
2023/06/10 10:00:42;;;;;;;;;;;;;;;29.36;35.07;98921.94;5105599;27;19923;-77
2023/06/10 10:03:07;;;;;;;;;;;;;;;29.63;33.17;98911.91;5093257;28;19945;-78
2023/06/10 10:05:33;;;;;;;;;;;;;;;29.80;32.56;98911.97;5108586;27;20013;-78
2023/06/10 10:07:58;;;;;;;;;;;;;;;29.81;33.29;98907.31;5113232;28;19955;-78
2023/06/10 10:10:23;;;;;;;;;;;;;;;29.80;33.84;98911.16;5116296;27;19922;-78
2023/06/10 10:12:52;;;;;;;;;;;;;;;29.68;32.17;98909.03;5114100;28;20008;-78
2023/06/10 10:15:20;;;;;;;;;;;;;;;29.60;34.31;98905.19;5114094;28;20404;-78
2023/06/10 10:17:48;;;;;;;;;;;;;;;29.67;33.58;98902.00;5105626;28;19916;-78
2023/06/10 10:20:17;;;;;;;;;;;;;;;29.64;32.48;98908.88;5093451;28;19991;-78
2023/06/10 10:22:43;;;;;;;;;;;;;;;29.67;33.79;98904.72;5095845;28;19912;-78
2023/06/10 10:25:13;;;;;;;;;;;;;;;29.98;32.90;98899.94;5113878;28;19912;-78
2023/06/10 10:27:45;;;;;;;;;;;;;;;30.21;33.06;98892.41;5112436;28;20386;-78
2023/06/10 10:30:11;;;;;;;;;;;;;;;30.63;33.12;98888.03;5113752;28;20010;-77
2023/06/10 10:32:54;;;;;;;;;;;;;;;31.00;32.69;98899.25;5113686;27;19908;-77
2023/06/10 10:35:23;;;;;;;;;;;;;;;31.26;33.25;98891.00;5100921;28;20041;-77
2023/06/10 10:37:52;;;;;;;;;;;;;;;31.27;32.78;98887.13;5093223;28;19948;-78
2023/06/10 10:40:36;;;;;;;;;;;;;;;31.29;33.15;98885.66;5110835;28;19921;-76
2023/06/10 10:43:02;;;;;;;;;;;;;;;31.60;30.93;98887.22;5110923;27;19912;-78
2023/06/10 10:45:28;;;;;;;;;;;;;;;31.85;32.80;98893.63;5094585;27;19919;-78
2023/06/10 10:47:55;;;;;;;;;;;;;;;31.72;30.59;98886.50;5112972;27;19915;-78
2023/06/10 10:50:20;;;;;;;;;;;;;;;31.66;32.57;98882.34;5111089;28;20357;-77
2023/06/10 10:52:56;;;;;;;;;;;;;;;31.89;30.68;98886.38;5113143;28;19916;-78
2023/06/10 10:55:22;;;;;;;;;;;;;;;32.02;31.69;98881.78;5110839;27;19915;-78
2023/06/10 10:57:54;;;;;;;;;;;;;;;32.18;30.70;98880.81;5120390;27;19927;-78
2023/06/10 11:00:29;;;;;;;;;;;;;;;32.40;29.52;98865.97;5112998;28;20316;-77
2023/06/10 11:02:58;;;;;;;;;;;;;;;32.52;31.24;98866.00;5112983;27;19916;-75
2023/06/10 11:05:31;;;;;;;;;;;;;;;32.73;30.16;98865.94;5113143;28;20437;-78
2023/06/10 11:07:56;;;;;;;;;;;;;;;32.89;29.23;98868.00;5111109;28;19923;-77
2023/06/10 11:10:29;;;;;;;;;;;;;;;32.39;30.35;98867.13;5092747;28;20479;-78
2023/06/10 11:12:54;;;;;;;;;;;;;;;32.32;31.59;98860.59;5091309;28;19980;-77
2023/06/10 11:15:22;;;;;;;;;;;;;;;32.51;29.31;98863.59;5093165;28;19916;-77
2023/06/10 11:18:05;;;;;;;;;;;;;;;32.59;29.82;98859.97;5093041;28;20381;-78
2023/06/10 11:20:49;;;;;;;;;;;;;;;32.33;31.50;98851.28;5093022;28;19919;-77
2023/06/10 11:23:30;;;;;;;;;;;;;;;31.93;30.34;98858.06;5093138;28;19912;-77
2023/06/10 11:26:14;;;;;;;;;;;;;;;31.58;30.76;98852.06;5091907;28;19912;-78
2023/06/10 11:28:40;;;;;;;;;;;;;;;31.19;32.60;98849.78;5092378;28;19934;-78
2023/06/10 11:31:05;;;;;;;;;;;;;;;31.03;30.70;98851.44;5107773;28;19912;-78
2023/06/10 11:33:31;;;;;;;;;;;;;;;30.98;31.98;98855.97;5092254;28;19991;-77
2023/06/10 11:35:56;;;;;;;;;;;;;;;30.75;31.99;98848.38;5107904;28;19965;-78
2023/06/10 11:38:21;;;;;;;;;;;;;;;30.49;31.71;98843.81;5090782;28;19922;-80
2023/06/10 11:40:50;;;;;;;;;;;;;;;30.23;30.94;98843.06;5092155;28;20391;-76
2023/06/10 11:43:19;;;;;;;;;;;;;;;30.07;31.13;98840.06;5092395;28;19915;-77
2023/06/10 11:45:45;;;;;;;;;;;;;;;29.87;32.71;98836.06;5090542;28;19912;-77
2023/06/10 11:48:10;;;;;;;;;;;;;;;29.67;32.42;98842.94;5092036;28;19923;-77
2023/06/10 11:50:36;;;;;;;;;;;;;;;29.49;30.56;98835.91;5121249;27;19934;-78
2023/06/10 11:53:02;;;;;;;;;;;;;;;29.31;31.98;98829.63;5112073;28;19965;-77
2023/06/10 11:55:43;;;;;;;;;;;;;;;29.24;32.30;98833.94;5112155;28;19933;-78
2023/06/10 11:58:12;;;;;;;;;;;;;;;29.13;32.21;98833.44;5110816;28;19923;-76
2023/06/10 12:00:43;;;;;;;;;;;;;;;29.07;33.50;98837.44;5121341;27;20000;-78
2023/06/10 12:03:09;;;;;;;;;;;;;;;28.94;32.28;98836.41;5118515;27;19924;-78
2023/06/10 12:05:34;;;;;;;;;;;;;;;28.86;32.26;98845.34;5112203;28;19912;-77
2023/06/10 12:08:12;;;;;;;;;;;;;;;28.78;33.83;98848.81;5112184;28;19916;-77
2023/06/10 12:10:43;;;;;;;;;;;;;;;28.60;34.85;98844.44;5112256;28;19919;-77
2023/06/10 12:13:09;;;;;;;;;;;;;;;28.41;35.80;98848.19;5112021;28;19915;-77
2023/06/10 12:15:34;;;;;;;;;;;;;;;28.29;36.93;98856.09;5112178;28;19912;-77
2023/06/10 12:18:00;;;;;;;;;;;;;;;28.14;37.03;98854.53;5110935;28;19927;-77
2023/06/10 12:20:29;;;;;;;;;;;;;;;27.90;39.11;98853.25;5112212;28;20415;-78
2023/06/10 12:22:55;;;;;;;;;;;;;;;27.76;39.67;98845.97;5112251;28;19912;-77
2023/06/10 12:25:29;;;;;;;;;;;;;;;27.66;38.95;98850.84;5112138;28;20456;-77
2023/06/10 12:27:56;;;;;;;;;;;;;;;27.48;38.68;98847.91;5112044;28;19920;-78
2023/06/10 12:30:22;;;;;;;;;;;;;;;27.40;39.15;98861.41;5111978;28;20380;-78
2023/06/10 12:32:47;;;;;;;;;;;;;;;27.23;39.53;98849.28;5111766;28;19998;-78
2023/06/10 12:35:20;;;;;;;;;;;;;;;27.18;39.98;98862.94;5110610;28;20312;-78
2023/06/10 12:38:03;;;;;;;;;;;;;;;27.09;41.03;98855.84;5110464;28;19943;-78
2023/06/10 12:40:28;;;;;;;;;;;;;;;26.99;41.33;98853.34;5111962;28;20349;-78
2023/06/10 12:42:54;;;;;;;;;;;;;;;26.88;41.70;98853.50;5111857;28;19947;-78
2023/06/10 12:45:29;;;;;;;;;;;;;;;26.78;40.76;98859.13;5111756;28;19965;-78
2023/06/10 12:48:15;;;;;;;;;;;;;;;26.71;41.51;98849.78;5111733;28;19918;-78
2023/06/10 12:50:41;;;;;;;;;;;;;;;26.69;40.68;98847.38;5104397;28;19911;-77